createdAt,value
2018-05-31T00:01:20.035Z,38.70
2018-05-31T00:03:47.555Z,38.27
2018-05-31T00:06:15.094Z,40.83
2018-05-31T00:08:42.635Z,40.07
2018-05-31T00:11:10.249Z,42.73
2018-05-31T00:13:37.780Z,41.50
2018-05-31T00:16:05.479Z,44.03
2018-05-31T00:18:33.808Z,40.63
2018-05-31T00:21:01.665Z,41.20
2018-05-31T00:23:29.196Z,42.77
2018-05-31T00:25:56.727Z,43.97
2018-05-31T00:28:24.286Z,43.67
2018-05-31T00:30:51.832Z,43.57
2018-05-31T00:33:19.380Z,43.47
2018-05-31T00:35:46.909Z,43.93
2018-05-31T00:38:14.440Z,45.00
2018-05-31T00:40:42.021Z,43.87
2018-05-31T00:43:09.552Z,45.10
2018-05-31T00:45:37.076Z,47.67
2018-05-31T00:48:04.602Z,48.10
2018-05-31T00:50:32.140Z,48.00
2018-05-31T00:52:59.707Z,47.63
2018-05-31T00:55:38.824Z,47.73
2018-05-31T00:58:06.403Z,47.03
2018-05-31T01:00:33.929Z,49.53
2018-05-31T01:03:02.381Z,47.30
2018-05-31T01:05:30.716Z,44.87
2018-05-31T01:07:58.247Z,43.63
2018-05-31T01:10:25.875Z,44.53
2018-05-31T01:12:53.403Z,43.87
2018-05-31T01:15:20.984Z,45.83
2018-05-31T01:17:49.271Z,45.93
2018-05-31T01:20:16.798Z,46.93
2018-05-31T01:22:44.331Z,47.40
2018-05-31T01:25:11.924Z,45.83
2018-05-31T01:27:39.466Z,47.83
2018-05-31T01:30:07.010Z,46.50
2018-05-31T01:32:36.203Z,46.07
2018-05-31T01:35:03.736Z,46.90
2018-05-31T01:37:31.302Z,45.90
2018-05-31T01:39:58.840Z,47.30
2018-05-31T01:42:26.392Z,49.07
2018-05-31T01:44:53.924Z,47.67
2018-05-31T01:47:22.249Z,49.37
2018-05-31T01:49:49.817Z,47.63
2018-05-31T01:52:18.083Z,49.30
2018-05-31T01:54:45.623Z,50.53
2018-05-31T01:57:13.208Z,51.23
2018-05-31T01:59:40.748Z,48.73
2018-05-31T02:02:08.304Z,45.73
2018-05-31T02:04:35.858Z,48.30
2018-05-31T02:07:03.475Z,47.60
2018-05-31T02:09:31.008Z,48.97
2018-05-31T02:11:58.591Z,51.90
2018-05-31T02:14:26.211Z,49.63
2018-05-31T02:16:53.775Z,50.13
2018-05-31T02:19:21.333Z,50.17
2018-05-31T02:21:48.900Z,50.63
2018-05-31T02:24:16.432Z,47.80
2018-05-31T02:26:44.002Z,52.33
2018-05-31T02:29:11.559Z,49.90
2018-05-31T02:31:39.107Z,50.43
2018-05-31T02:34:07.529Z,52.37
2018-05-31T02:36:35.099Z,53.63
2018-05-31T02:39:02.640Z,50.93
2018-05-31T02:41:30.312Z,50.43
2018-05-31T02:43:57.864Z,53.93
2018-05-31T02:46:25.415Z,48.97
2018-05-31T02:48:53.322Z,52.80
2018-05-31T02:51:21.621Z,47.60
2018-05-31T02:53:49.171Z,54.27
2018-05-31T02:56:16.732Z,52.20
2018-05-31T02:58:44.263Z,51.13
2018-05-31T03:01:11.839Z,51.23
2018-05-31T03:03:40.150Z,49.63
2018-05-31T03:06:08.558Z,53.63
2018-05-31T03:08:36.100Z,53.03
2018-05-31T03:11:04.408Z,53.20
2018-05-31T03:13:31.960Z,50.10
2018-05-31T03:15:59.492Z,52.70
2018-05-31T03:18:27.052Z,50.47
2018-05-31T03:20:54.699Z,49.47
2018-05-31T03:23:22.239Z,49.17
2018-05-31T03:25:49.819Z,47.40
2018-05-31T03:28:17.500Z,47.87
2018-05-31T03:30:45.024Z,50.10
2018-05-31T03:33:12.555Z,48.77
2018-05-31T03:35:40.545Z,47.47
2018-05-31T03:38:08.096Z,49.37
2018-05-31T03:40:35.625Z,46.73
2018-05-31T03:43:04.895Z,45.67
2018-05-31T03:45:32.430Z,48.07
2018-05-31T03:47:59.961Z,48.23
2018-05-31T03:50:27.502Z,55.00
2018-05-31T03:52:55.791Z,47.87
2018-05-31T03:55:23.327Z,48.67
2018-05-31T03:57:50.852Z,49.20
2018-05-31T04:00:18.392Z,49.57
2018-05-31T04:02:45.937Z,49.50
2018-05-31T04:05:13.474Z,48.00
2018-05-31T04:07:42.599Z,46.57
2018-05-31T04:10:10.132Z,47.83
2018-05-31T04:12:37.684Z,47.20
2018-05-31T04:15:05.216Z,46.07
2018-05-31T04:17:32.751Z,47.60
2018-05-31T04:20:00.283Z,45.70
2018-05-31T04:22:28.584Z,46.20
2018-05-31T04:24:56.124Z,44.83
2018-05-31T04:27:23.643Z,45.07
2018-05-31T04:29:51.187Z,45.67
2018-05-31T04:32:18.724Z,45.93
2018-05-31T04:34:46.269Z,47.57
2018-05-31T04:37:13.855Z,44.33
2018-05-31T04:39:41.421Z,49.83
2018-05-31T04:42:09.990Z,44.27
2018-05-31T04:44:37.534Z,46.90
2018-05-31T04:47:05.068Z,44.97
2018-05-31T04:49:32.614Z,42.40
2018-05-31T04:52:00.145Z,43.30
2018-05-31T04:54:27.695Z,45.33
2018-05-31T04:56:55.231Z,42.77
2018-05-31T04:59:22.799Z,45.03
2018-05-31T05:01:50.346Z,42.83
2018-05-31T05:04:18.768Z,42.47
2018-05-31T05:06:46.294Z,42.50
2018-05-31T05:09:13.847Z,44.57
2018-05-31T05:11:42.139Z,43.37
2018-05-31T05:14:09.759Z,43.30
2018-05-31T05:16:37.306Z,39.97
2018-05-31T05:19:04.875Z,41.27
2018-05-31T05:21:32.429Z,43.27
2018-05-31T05:23:59.963Z,40.90
2018-05-31T05:26:27.587Z,42.13
2018-05-31T05:28:55.079Z,39.07
2018-05-31T05:31:22.615Z,40.67
2018-05-31T05:33:50.155Z,40.50
2018-05-31T05:36:17.692Z,38.33
2018-05-31T05:38:45.231Z,40.67
2018-05-31T05:41:12.783Z,39.77
2018-05-31T05:43:40.311Z,42.13
2018-05-31T05:46:08.615Z,35.97
2018-05-31T05:48:36.152Z,39.30
2018-05-31T05:51:03.692Z,37.67
2018-05-31T05:53:31.231Z,36.70
2018-05-31T05:55:58.779Z,36.60
2018-05-31T05:58:27.138Z,35.67
2018-05-31T06:00:54.666Z,33.73
2018-05-31T06:03:22.197Z,33.37
2018-05-31T06:05:49.743Z,31.40
2018-05-31T06:08:17.301Z,36.07
2018-05-31T06:10:44.869Z,30.20
2018-05-31T06:13:12.416Z,29.77
2018-05-31T06:15:39.953Z,28.15
2018-05-31T06:18:07.501Z,29.15
2018-05-31T06:20:35.055Z,26.55
2018-05-31T06:23:02.615Z,26.10
2018-05-31T06:25:30.147Z,24.37
2018-05-31T06:27:57.676Z,23.58
2018-05-31T06:30:25.218Z,21.08
2018-05-31T06:32:52.755Z,21.87
2018-05-31T06:35:21.096Z,21.67
2018-05-31T06:37:48.620Z,20.88
2018-05-31T06:40:16.154Z,21.27
2018-05-31T06:42:43.689Z,21.20
2018-05-31T06:45:11.239Z,20.30
2018-05-31T06:47:38.760Z,22.15
2018-05-31T06:50:06.296Z,20.95
2018-05-31T06:52:33.824Z,22.35
2018-05-31T06:55:01.368Z,21.95
2018-05-31T06:57:28.912Z,20.50
2018-05-31T06:59:56.460Z,19.45
2018-05-31T07:02:23.986Z,19.08
2018-05-31T07:04:51.512Z,18.62
2018-05-31T07:07:19.032Z,17.75
2018-05-31T07:09:47.344Z,17.65
2018-05-31T07:12:14.871Z,18.35
2018-05-31T07:14:42.408Z,17.92
2018-05-31T07:17:09.938Z,19.40
2018-05-31T07:19:37.463Z,19.55
2018-05-31T07:22:04.983Z,19.20
2018-05-31T07:24:32.508Z,19.98
2018-05-31T07:27:00.040Z,18.62
2018-05-31T07:29:27.563Z,18.27
2018-05-31T07:31:55.095Z,19.02
2018-05-31T07:34:22.624Z,17.35
2018-05-31T07:36:50.149Z,17.95
2018-05-31T07:39:17.680Z,18.52
2018-05-31T07:41:45.975Z,16.98
2018-05-31T07:44:13.493Z,19.55
2018-05-31T07:46:41.012Z,19.42
2018-05-31T07:49:08.536Z,21.37
2018-05-31T07:51:36.823Z,18.55
2018-05-31T07:54:04.355Z,19.10
2018-05-31T07:56:31.895Z,19.50
2018-05-31T07:58:59.428Z,18.45
2018-05-31T08:01:26.962Z,20.02
2018-05-31T08:03:54.504Z,19.42
2018-05-31T08:06:22.028Z,21.10
2018-05-31T08:08:49.563Z,24.58
2018-05-31T08:11:17.097Z,20.50
2018-05-31T08:13:44.641Z,31.85
2018-05-31T08:16:12.165Z,22.27
2018-05-31T08:18:39.696Z,34.55
2018-05-31T08:21:07.219Z,41.55
2018-05-31T08:23:35.483Z,20.95
2018-05-31T08:26:02.998Z,21.10
2018-05-31T08:28:30.515Z,20.90
2018-05-31T08:30:58.059Z,19.58
2018-05-31T08:33:25.579Z,19.40
2018-05-31T08:35:53.131Z,18.75
2018-05-31T08:38:20.658Z,20.25
2018-05-31T08:40:48.416Z,19.87
2018-05-31T08:43:15.939Z,19.48
2018-05-31T08:45:43.458Z,19.75
2018-05-31T08:48:10.983Z,18.55
2018-05-31T08:50:38.503Z,18.08
2018-05-31T08:53:06.031Z,18.08
2018-05-31T08:55:33.560Z,18.52
2018-05-31T08:58:01.097Z,18.70
2018-05-31T09:00:28.615Z,17.90
2018-05-31T09:02:56.307Z,17.25
2018-05-31T09:05:24.591Z,18.58
2018-05-31T09:07:52.110Z,16.75
2018-05-31T09:10:19.644Z,15.90
2018-05-31T09:12:47.168Z,16.05
2018-05-31T09:15:15.518Z,13.65
2018-05-31T09:17:42.999Z,32.25
2018-05-31T09:20:11.443Z,28.70
2018-05-31T09:22:38.962Z,19.45
2018-05-31T09:25:07.246Z,13.80
2018-05-31T09:27:34.776Z,14.35
2018-05-31T09:30:02.304Z,16.87
2018-05-31T09:32:29.831Z,24.48
2018-05-31T09:34:57.345Z,62.70
2018-05-31T09:37:24.869Z,20.75
2018-05-31T09:39:52.392Z,14.02
2018-05-31T09:42:19.935Z,12.93
2018-05-31T09:44:47.479Z,39.60
2018-05-31T09:47:15.064Z,18.80
2018-05-31T09:49:42.592Z,17.60
2018-05-31T09:52:10.133Z,11.88
2018-05-31T09:54:37.656Z,10.70
2018-05-31T09:57:05.180Z,10.90
2018-05-31T09:59:32.725Z,11.55
2018-05-31T10:02:00.258Z,10.98
2018-05-31T10:04:27.827Z,12.57
2018-05-31T10:06:55.347Z,12.15
2018-05-31T10:09:22.883Z,12.82
2018-05-31T10:11:50.403Z,12.48
2018-05-31T10:14:17.939Z,10.40
2018-05-31T10:16:45.460Z,9.25
2018-05-31T10:19:12.979Z,10.07
2018-05-31T10:21:40.510Z,10.85
2018-05-31T10:24:08.037Z,10.80
2018-05-31T10:26:35.555Z,11.20
2018-05-31T10:29:03.088Z,11.12
2018-05-31T10:31:30.639Z,11.63
2018-05-31T10:33:58.147Z,11.23
2018-05-31T10:36:25.685Z,11.52
2018-05-31T10:38:53.221Z,15.38
2018-05-31T10:41:20.738Z,11.95
2018-05-31T10:43:48.282Z,11.27
2018-05-31T10:46:18.514Z,13.05
2018-05-31T10:48:46.100Z,11.93
2018-05-31T10:51:13.686Z,12.63
2018-05-31T10:53:41.215Z,11.90
2018-05-31T10:56:08.750Z,12.45
2018-05-31T10:58:36.275Z,13.82
2018-05-31T11:01:03.799Z,12.45
2018-05-31T11:03:31.323Z,13.23
2018-05-31T11:05:58.843Z,12.68
2018-05-31T11:08:26.366Z,18.15
2018-05-31T11:10:53.891Z,20.08
2018-05-31T11:13:21.419Z,13.65
2018-05-31T11:15:48.944Z,15.50
2018-05-31T11:18:16.462Z,13.85
2018-05-31T11:20:43.986Z,12.73
2018-05-31T11:23:11.499Z,15.40
2018-05-31T11:25:39.031Z,16.73
2018-05-31T11:28:06.550Z,13.23
2018-05-31T11:30:34.099Z,23.42
2018-05-31T11:33:01.615Z,16.17
2018-05-31T11:35:29.130Z,15.27
2018-05-31T11:37:56.643Z,11.70
2018-05-31T11:40:25.079Z,11.20
2018-05-31T11:42:52.607Z,16.62
2018-05-31T11:45:20.120Z,12.82
2018-05-31T11:47:47.658Z,23.08
2018-05-31T11:50:15.185Z,11.68
2018-05-31T11:52:42.713Z,54.15
2018-05-31T11:55:10.241Z,17.17
2018-05-31T11:57:37.759Z,25.15
2018-05-31T12:00:05.289Z,96.78
2018-05-31T12:02:32.807Z,19.80
2018-05-31T12:05:00.335Z,14.13
2018-05-31T12:07:27.852Z,11.55
2018-05-31T12:09:55.381Z,11.77
2018-05-31T12:12:22.897Z,11.55
2018-05-31T12:14:50.418Z,12.00
2018-05-31T12:17:17.965Z,14.10
2018-05-31T12:19:45.550Z,11.85
2018-05-31T12:22:13.125Z,12.35
2018-05-31T12:24:40.664Z,11.65
2018-05-31T12:27:08.224Z,12.37
2018-05-31T12:29:35.743Z,11.05
2018-05-31T12:32:03.260Z,9.95
2018-05-31T12:34:30.800Z,10.73
2018-05-31T12:36:58.315Z,12.15
2018-05-31T12:39:25.862Z,15.35
2018-05-31T12:41:54.140Z,11.25
2018-05-31T12:44:21.660Z,13.38
2018-05-31T12:46:49.179Z,9.82
2018-05-31T12:49:16.698Z,10.85
2018-05-31T12:51:44.223Z,26.33
2018-05-31T12:54:11.742Z,13.82
2018-05-31T12:56:39.274Z,12.20
2018-05-31T12:59:06.787Z,10.27
2018-05-31T13:01:34.306Z,10.70
2018-05-31T13:04:01.823Z,14.10
2018-05-31T13:06:29.348Z,10.98
2018-05-31T13:08:56.891Z,11.63
2018-05-31T13:11:24.411Z,11.77
2018-05-31T13:13:51.932Z,11.20
2018-05-31T13:16:19.470Z,11.40
2018-05-31T13:18:47.844Z,21.77
2018-05-31T13:21:16.136Z,18.37
2018-05-31T13:23:43.656Z,12.37
2018-05-31T13:26:11.184Z,11.88
2018-05-31T13:28:38.715Z,13.05
2018-05-31T13:31:06.241Z,12.82
2018-05-31T13:33:33.773Z,11.85
2018-05-31T13:36:01.311Z,11.43
2018-05-31T13:38:28.834Z,12.95
2018-05-31T13:40:56.355Z,11.35
2018-05-31T13:43:23.879Z,10.85
2018-05-31T13:45:52.177Z,13.98
2018-05-31T13:48:19.876Z,11.75
2018-05-31T13:50:47.382Z,10.25
2018-05-31T13:53:14.924Z,10.65
2018-05-31T13:55:42.452Z,11.55
2018-05-31T13:58:09.996Z,11.63
2018-05-31T14:00:38.238Z,11.82
2018-05-31T14:03:05.774Z,10.50
2018-05-31T14:05:33.302Z,9.30
2018-05-31T14:08:00.840Z,9.95
2018-05-31T14:10:28.363Z,9.57
2018-05-31T14:12:56.692Z,12.95
2018-05-31T14:15:24.212Z,11.70
2018-05-31T14:17:51.730Z,10.43
2018-05-31T14:20:19.247Z,10.55
2018-05-31T14:22:46.766Z,10.80
2018-05-31T14:25:14.599Z,11.18
2018-05-31T14:27:42.115Z,11.07
2018-05-31T14:30:09.662Z,12.18
2018-05-31T14:32:37.193Z,11.45
2018-05-31T14:35:04.727Z,11.98
2018-05-31T14:37:32.253Z,12.15
2018-05-31T14:39:59.788Z,12.13
2018-05-31T14:42:27.307Z,15.00
2018-05-31T14:44:54.863Z,14.52
2018-05-31T14:47:22.676Z,15.68
2018-05-31T14:49:50.192Z,14.05
2018-05-31T14:52:17.734Z,13.43
2018-05-31T14:54:45.259Z,11.45
2018-05-31T14:57:12.792Z,11.20
2018-05-31T14:59:40.324Z,12.88
2018-05-31T15:02:07.848Z,11.93
2018-05-31T15:04:35.371Z,11.77
2018-05-31T15:07:02.892Z,11.18
2018-05-31T15:09:30.411Z,11.48
2018-05-31T15:11:57.988Z,15.05
2018-05-31T15:14:25.516Z,50.45
2018-05-31T15:16:53.031Z,20.23
2018-05-31T15:19:20.568Z,18.77
2018-05-31T15:21:48.102Z,22.60
2018-05-31T15:24:15.627Z,22.58
2018-05-31T15:26:43.159Z,18.67
2018-05-31T15:29:10.689Z,19.33
2018-05-31T15:31:39.147Z,19.65
2018-05-31T15:34:06.697Z,18.90
2018-05-31T15:36:34.219Z,24.67
2018-05-31T15:39:01.728Z,22.90
2018-05-31T15:41:29.243Z,20.70
2018-05-31T15:43:56.782Z,20.43
2018-05-31T15:46:24.300Z,21.70
2018-05-31T15:48:51.825Z,18.17
2018-05-31T15:51:19.366Z,19.07
2018-05-31T15:53:47.705Z,20.90
2018-05-31T15:56:15.228Z,19.40
2018-05-31T15:58:42.746Z,19.47
2018-05-31T16:01:10.278Z,18.13
2018-05-31T16:03:37.803Z,19.33
2018-05-31T16:06:06.092Z,18.47
2018-05-31T16:08:33.651Z,18.23
2018-05-31T16:11:01.143Z,18.27
2018-05-31T16:13:28.659Z,18.30
2018-05-31T16:15:56.442Z,16.43
2018-05-31T16:18:23.959Z,15.67
2018-05-31T16:20:51.482Z,15.40
2018-05-31T16:23:18.998Z,16.60
2018-05-31T16:25:47.282Z,15.57
2018-05-31T16:28:14.806Z,14.47
2018-05-31T16:30:42.339Z,15.47
2018-05-31T16:33:09.861Z,13.93
2018-05-31T16:35:37.383Z,14.27
2018-05-31T16:38:04.903Z,13.77
2018-05-31T16:40:32.429Z,13.67
2018-05-31T16:42:59.955Z,13.40
2018-05-31T16:45:27.471Z,14.30
2018-05-31T16:47:54.989Z,14.00
2018-05-31T16:50:22.507Z,12.73
2018-05-31T16:52:50.032Z,13.73
2018-05-31T16:55:18.313Z,11.67
2018-05-31T16:57:45.866Z,12.03
2018-05-31T17:00:13.388Z,13.10
2018-05-31T17:02:40.903Z,12.03
2018-05-31T17:05:08.428Z,11.93
2018-05-31T17:07:35.947Z,12.33
2018-05-31T17:10:03.491Z,12.70
2018-05-31T17:12:31.008Z,12.20
2018-05-31T17:14:58.622Z,13.63
2018-05-31T17:17:26.091Z,12.33
2018-05-31T17:19:53.637Z,12.20
2018-05-31T17:22:21.167Z,12.87
2018-05-31T17:24:48.724Z,14.87
2018-05-31T17:27:16.240Z,14.80
2018-05-31T17:29:43.769Z,12.67
2018-05-31T17:32:11.289Z,14.67
2018-05-31T17:34:38.830Z,14.93
2018-05-31T17:37:06.348Z,13.10
2018-05-31T17:39:33.874Z,13.53
2018-05-31T17:42:01.399Z,15.57
2018-05-31T17:44:28.919Z,15.03
2018-05-31T17:46:56.443Z,16.10
2018-05-31T17:49:24.916Z,15.70
2018-05-31T17:51:52.437Z,15.80
2018-05-31T17:54:19.959Z,17.07
2018-05-31T17:56:47.480Z,16.50
2018-05-31T17:59:15.012Z,16.20
2018-05-31T18:01:42.536Z,17.87
2018-05-31T18:04:10.071Z,16.80
2018-05-31T18:06:37.587Z,16.93
2018-05-31T18:09:05.926Z,17.63
2018-05-31T18:11:33.445Z,16.50
2018-05-31T18:14:00.986Z,17.70
2018-05-31T18:16:28.507Z,18.50
2018-05-31T18:18:56.058Z,17.20
2018-05-31T18:21:23.573Z,18.00
2018-05-31T18:23:51.862Z,18.93
2018-05-31T18:26:19.394Z,19.57
2018-05-31T18:28:46.925Z,18.53
2018-05-31T18:31:14.511Z,19.30
2018-05-31T18:33:42.799Z,18.93
2018-05-31T18:36:10.344Z,19.00
2018-05-31T18:38:37.866Z,19.93
2018-05-31T18:41:05.448Z,20.83
2018-05-31T18:43:32.967Z,21.10
2018-05-31T18:46:00.515Z,22.43
2018-05-31T18:48:28.040Z,19.23
2018-05-31T18:50:55.582Z,21.00
2018-05-31T18:53:23.116Z,19.33
2018-05-31T18:55:50.655Z,21.07
2018-05-31T18:58:18.959Z,22.00
2018-05-31T19:00:46.493Z,21.87
2018-05-31T19:03:14.037Z,24.30
2018-05-31T19:05:41.568Z,21.10
2018-05-31T19:08:09.908Z,21.97
2018-05-31T19:10:37.431Z,22.23
2018-05-31T19:13:10.575Z,21.73
2018-05-31T19:15:38.096Z,23.27
2018-05-31T19:18:05.620Z,22.73
2018-05-31T19:20:33.152Z,23.47
2018-05-31T19:23:00.675Z,24.67
2018-05-31T19:25:28.198Z,23.20
2018-05-31T19:27:55.734Z,24.43
2018-05-31T19:30:28.964Z,23.53
2018-05-31T19:32:56.491Z,24.40
2018-05-31T19:35:29.937Z,23.30
2018-05-31T19:37:58.238Z,22.87
2018-05-31T19:40:25.771Z,22.43
2018-05-31T19:42:58.994Z,23.50
2018-05-31T19:45:27.346Z,24.53
2018-05-31T19:47:54.897Z,24.63
2018-05-31T19:50:22.429Z,23.40
2018-05-31T19:52:55.537Z,23.87
2018-05-31T19:55:23.047Z,23.70
2018-05-31T19:57:56.234Z,23.70
2018-05-31T20:00:29.831Z,25.10
2018-05-31T20:03:03.080Z,24.40
2018-05-31T20:05:31.264Z,25.73
2018-05-31T20:07:58.811Z,25.43
2018-05-31T20:10:26.323Z,25.93
2018-05-31T20:12:53.837Z,27.70
2018-05-31T20:15:21.387Z,26.27
2018-05-31T20:17:48.902Z,28.00
2018-05-31T20:20:17.187Z,26.83
2018-05-31T20:22:44.704Z,25.50
2018-05-31T20:25:12.230Z,25.40
2018-05-31T20:27:39.743Z,26.00
2018-05-31T20:30:07.271Z,25.37
2018-05-31T20:32:34.847Z,27.80
2018-05-31T20:35:02.339Z,24.10
2018-05-31T20:37:29.855Z,26.83
2018-05-31T20:39:57.384Z,25.17
2018-05-31T20:42:24.907Z,27.30
2018-05-31T20:44:52.432Z,26.90
2018-05-31T20:47:21.588Z,27.13
2018-05-31T20:49:49.378Z,26.90
2018-05-31T20:52:16.918Z,27.83
2018-05-31T20:54:44.439Z,26.90
2018-05-31T20:57:11.981Z,28.57
2018-05-31T20:59:39.504Z,26.43
2018-05-31T21:02:07.048Z,26.90
2018-05-31T21:04:34.614Z,26.50
2018-05-31T21:07:02.160Z,28.03
2018-05-31T21:09:30.443Z,28.30
2018-05-31T21:11:57.969Z,29.30
2018-05-31T21:14:25.494Z,29.77
2018-05-31T21:16:53.019Z,29.50
2018-05-31T21:19:21.311Z,28.10
2018-05-31T21:21:48.845Z,28.33
2018-05-31T21:24:16.380Z,30.87
2018-05-31T21:26:43.907Z,30.37
2018-05-31T21:29:11.433Z,30.70
2018-05-31T21:31:38.959Z,31.17
2018-05-31T21:34:06.496Z,29.67
2018-05-31T21:36:34.012Z,29.63
2018-05-31T21:39:01.533Z,30.33
2018-05-31T21:41:29.058Z,30.97
2018-05-31T21:43:56.588Z,35.03
2018-05-31T21:46:24.869Z,30.50
2018-05-31T21:48:52.392Z,28.57
2018-05-31T21:51:19.911Z,31.13
2018-05-31T21:53:47.439Z,32.57
2018-05-31T21:56:15.724Z,32.57
2018-05-31T21:58:43.253Z,34.00
2018-05-31T22:01:10.767Z,32.83
2018-05-31T22:03:38.293Z,32.00
2018-05-31T22:06:06.596Z,34.17
2018-05-31T22:08:34.121Z,34.67
2018-05-31T22:11:01.658Z,33.23
2018-05-31T22:13:29.175Z,31.10
2018-05-31T22:15:56.703Z,30.03
2018-05-31T22:18:24.222Z,28.10
2018-05-31T22:20:51.756Z,33.00
2018-05-31T22:23:19.278Z,35.23
2018-05-31T22:25:46.803Z,34.77
2018-05-31T22:28:14.319Z,33.60
2018-05-31T22:30:41.839Z,38.43
2018-05-31T22:33:09.369Z,36.40
2018-05-31T22:35:36.911Z,35.40
2018-05-31T22:38:05.234Z,37.57
2018-05-31T22:40:32.747Z,39.50
2018-05-31T22:43:00.296Z,35.57
2018-05-31T22:45:27.824Z,37.47
2018-05-31T22:47:55.344Z,40.00
2018-05-31T22:50:22.868Z,38.87
2018-05-31T22:52:50.402Z,37.07
2018-05-31T22:55:17.923Z,34.17
2018-05-31T22:57:45.443Z,33.77
2018-05-31T23:00:12.981Z,32.83
2018-05-31T23:02:40.600Z,34.03
2018-05-31T23:05:08.118Z,35.47
2018-05-31T23:07:35.640Z,34.57
2018-05-31T23:10:03.155Z,34.73
2018-05-31T23:12:30.666Z,37.50
2018-05-31T23:14:58.190Z,35.93
2018-05-31T23:17:25.712Z,37.80
2018-05-31T23:19:53.227Z,37.87
2018-05-31T23:22:20.760Z,36.87
2018-05-31T23:24:48.292Z,36.90
2018-05-31T23:27:15.810Z,38.50
2018-05-31T23:29:43.319Z,36.57
2018-05-31T23:32:10.837Z,38.53
2018-05-31T23:34:38.411Z,36.23
2018-05-31T23:37:05.936Z,35.53
2018-05-31T23:39:33.463Z,37.37
2018-05-31T23:42:01.035Z,37.80
2018-05-31T23:44:28.560Z,37.93
2018-05-31T23:46:56.085Z,36.73
2018-05-31T23:49:23.603Z,37.73
2018-05-31T23:51:51.133Z,41.43
2018-05-31T23:54:18.651Z,38.07
2018-05-31T23:56:46.172Z,37.13
2018-05-31T23:59:13.692Z,37.70
